Time;durP1;ratioP1;P1;durP2;ratioP2;P2;SDS_P1;SDS_P2;PMS_P1;PMS_P2;Temp;Humidity;BMP_temperature;BMP_pressure;BME280_temperature;BME280_humidity;BME280_pressure;Samples;Min_cycle;Max_cycle;Signal;HPM_P1;HPM_P2
2024/03/20 00:00:31;;;;;;;;;;;7.70;79.60;;;;;;4981167;28;87146;-50
2024/03/20 00:02:57;;;;;;;;;;;7.60;79.60;;;;;;4972175;28;88156;-50
2024/03/20 00:05:23;;;;;;;;;;;7.70;79.80;;;;;;4978486;28;87373;-53
2024/03/20 00:07:48;;;;;;;;;;;7.70;79.70;;;;;;4978007;28;86959;-51
2024/03/20 00:10:16;;;;;;;;;;;7.70;79.70;;;;;;4974762;28;87841;-51
2024/03/20 00:12:42;;;;;;;;;;;7.70;79.70;;;;;;4977185;28;88555;-54
2024/03/20 00:15:08;;;;;;;;;;;7.70;79.60;;;;;;4981537;28;86929;-53
2024/03/20 00:17:34;;;;;;;;;;;7.60;79.70;;;;;;4975537;28;87907;-51
2024/03/20 00:20:00;;;;;;;;;;;7.60;79.70;;;;;;4978573;28;88095;-48
2024/03/20 00:22:26;;;;;;;;;;;7.60;79.60;;;;;;4978641;28;87074;-51
2024/03/20 00:24:52;;;;;;;;;;;7.60;79.70;;;;;;4975503;28;87242;-51
2024/03/20 00:27:17;;;;;;;;;;;7.60;79.80;;;;;;4972449;28;87764;-50
2024/03/20 00:29:43;;;;;;;;;;;7.60;79.80;;;;;;4977545;28;87915;-52
2024/03/20 00:32:09;;;;;;;;;;;7.60;79.90;;;;;;4976655;28;87662;-50
2024/03/20 00:34:34;;;;;;;;;;;7.60;79.80;;;;;;4976556;28;87359;-52
2024/03/20 00:37:00;;;;;;;;;;;7.60;79.90;;;;;;4974085;28;88151;-48
2024/03/20 00:39:26;;;;;;;;;;;7.50;79.90;;;;;;4976412;28;87622;-52
2024/03/20 00:41:52;;;;;;;;;;;7.50;79.90;;;;;;4973260;28;87917;-50
2024/03/20 00:44:18;;;;;;;;;;;7.50;80.00;;;;;;4980914;28;86723;-50
2024/03/20 00:46:44;;;;;;;;;;;7.50;79.90;;;;;;4977057;28;86994;-51
2024/03/20 00:49:09;;;;;;;;;;;7.50;79.80;;;;;;4978641;28;87100;-53
2024/03/20 00:51:35;;;;;;;;;;;7.50;79.80;;;;;;4974827;28;88677;-53
2024/03/20 00:54:00;;;;;;;;;;;7.50;79.90;;;;;;4974255;28;87496;-48
2024/03/20 00:56:26;;;;;;;;;;;7.50;79.90;;;;;;4978194;28;87078;-51
2024/03/20 00:58:52;;;;;;;;;;;7.50;79.90;;;;;;4976677;28;87528;-51
2024/03/20 01:01:17;;;;;;;;;;;7.50;79.90;;;;;;4974841;28;87095;-50
2024/03/20 01:03:43;;;;;;;;;;;7.40;79.80;;;;;;4977457;28;86917;-51
2024/03/20 01:06:08;;;;;;;;;;;7.40;79.90;;;;;;4977378;28;87777;-49
2024/03/20 01:08:36;;;;;;;;;;;7.40;80.00;;;;;;4975847;28;86677;-52
2024/03/20 01:11:01;;;;;;;;;;;7.40;79.90;;;;;;4967838;28;88093;-49
2024/03/20 01:13:27;;;;;;;;;;;7.40;79.90;;;;;;4978410;28;87011;-50
2024/03/20 01:15:53;;;;;;;;;;;7.40;79.80;;;;;;4970484;28;88352;-48
2024/03/20 01:18:18;;;;;;;;;;;7.30;79.70;;;;;;4974929;28;87401;-51
2024/03/20 01:20:44;;;;;;;;;;;7.30;79.80;;;;;;4977050;28;87007;-50
2024/03/20 01:23:10;;;;;;;;;;;7.30;79.90;;;;;;4974823;28;87225;-49
2024/03/20 01:25:35;;;;;;;;;;;7.30;79.70;;;;;;4974691;28;87401;-50
2024/03/20 01:28:01;;;;;;;;;;;7.30;79.70;;;;;;4977213;28;86937;-50
2024/03/20 01:30:26;;;;;;;;;;;7.30;79.80;;;;;;4976184;28;87654;-50
2024/03/20 01:32:52;;;;;;;;;;;7.30;79.90;;;;;;4978403;28;87212;-50
2024/03/20 01:35:18;;;;;;;;;;;7.30;79.90;;;;;;4977556;28;87366;-51
2024/03/20 01:37:44;;;;;;;;;;;7.20;79.90;;;;;;4978169;28;88542;-50
2024/03/20 01:40:10;;;;;;;;;;;7.20;80.00;;;;;;4973302;28;88025;-50
2024/03/20 01:42:35;;;;;;;;;;;7.20;79.90;;;;;;4973959;28;89560;-50
2024/03/20 01:45:14;;;;;;;;;;;7.20;79.90;;;;;;4970013;28;87145;-50
2024/03/20 01:47:41;;;;;;;;;;;7.20;80.00;;;;;;4976154;28;86996;-50
2024/03/20 01:50:08;;;;;;;;;;;7.20;79.80;;;;;;4979762;28;87007;-49
2024/03/20 01:52:34;;;;;;;;;;;7.10;79.80;;;;;;4974534;28;87152;-49
2024/03/20 01:55:00;;;;;;;;;;;7.10;79.80;;;;;;4978936;28;87889;-50
2024/03/20 01:57:25;;;;;;;;;;;7.20;79.90;;;;;;4974923;28;86767;-51
2024/03/20 01:59:51;;;;;;;;;;;7.20;79.80;;;;;;4980707;28;87431;-49
2024/03/20 02:02:17;;;;;;;;;;;7.20;79.90;;;;;;4972146;28;87609;-48
2024/03/20 02:04:42;;;;;;;;;;;7.10;79.80;;;;;;4973632;28;88720;-50
2024/03/20 02:07:09;;;;;;;;;;;7.10;79.80;;;;;;4973873;28;87069;-52
2024/03/20 02:09:35;;;;;;;;;;;7.10;79.80;;;;;;4980141;28;86974;-50
2024/03/20 02:12:00;;;;;;;;;;;7.10;79.80;;;;;;4974306;28;87584;-48
2024/03/20 02:14:26;;;;;;;;;;;7.10;79.80;;;;;;4975385;28;86987;-51
2024/03/20 02:16:52;;;;;;;;;;;7.10;79.70;;;;;;4979006;28;87326;-49
2024/03/20 02:19:17;;;;;;;;;;;7.10;79.80;;;;;;4976279;28;87141;-53
2024/03/20 02:21:43;;;;;;;;;;;7.10;79.80;;;;;;4977178;28;86679;-49
2024/03/20 02:24:09;;;;;;;;;;;7.00;79.60;;;;;;4976955;28;87439;-49
2024/03/20 02:26:34;;;;;;;;;;;7.00;79.70;;;;;;4975426;28;86917;-49
2024/03/20 02:29:00;;;;;;;;;;;7.00;79.70;;;;;;4971560;28;88953;-50
2024/03/20 02:31:25;;;;;;;;;;;7.00;79.70;;;;;;4977388;28;87799;-52
2024/03/20 02:33:53;;;;;;;;;;;7.00;79.70;;;;;;4971495;28;87070;-49
2024/03/20 02:36:18;;;;;;;;;;;7.00;79.70;;;;;;4972812;28;88501;-50
2024/03/20 02:38:44;;;;;;;;;;;7.00;79.70;;;;;;4973029;28;86975;-49
2024/03/20 02:41:10;;;;;;;;;;;7.00;79.80;;;;;;4973279;28;87705;-50
2024/03/20 02:43:36;;;;;;;;;;;6.90;79.80;;;;;;4975574;28;88428;-50
2024/03/20 02:46:01;;;;;;;;;;;6.90;79.90;;;;;;4976820;28;86473;-49
2024/03/20 02:48:27;;;;;;;;;;;6.90;80.00;;;;;;4976763;28;86866;-50
2024/03/20 02:50:53;;;;;;;;;;;6.90;79.80;;;;;;4970511;28;87751;-50
2024/03/20 02:53:18;;;;;;;;;;;6.90;79.80;;;;;;4976288;28;87980;-49
2024/03/20 02:55:45;;;;;;;;;;;6.90;79.80;;;;;;4976079;28;88502;-49
2024/03/20 02:58:11;;;;;;;;;;;6.90;79.90;;;;;;4970020;28;87674;-48
2024/03/20 03:00:37;;;;;;;;;;;6.90;79.80;;;;;;4975973;28;87092;-50
2024/03/20 03:03:02;;;;;;;;;;;6.80;79.80;;;;;;4977289;28;87395;-48
2024/03/20 03:05:29;;;;;;;;;;;6.90;79.90;;;;;;4972505;28;86939;-52
2024/03/20 03:07:55;;;;;;;;;;;6.80;79.90;;;;;;4976150;28;87049;-53
2024/03/20 03:10:21;;;;;;;;;;;6.80;79.80;;;;;;4977504;28;86623;-50
2024/03/20 03:12:48;;;;;;;;;;;6.80;80.00;;;;;;4973041;28;87035;-53
2024/03/20 03:15:13;;;;;;;;;;;6.70;80.00;;;;;;4979927;28;87037;-52
2024/03/20 03:17:43;;;;;;;;;;;6.70;80.50;;;;;;4979258;28;87998;-50
2024/03/20 03:20:15;;;;;;;;;;;6.70;79.90;;;;;;4974921;28;87428;-50
2024/03/20 03:22:41;;;;;;;;;;;6.80;79.80;;;;;;4979033;28;87954;-50
2024/03/20 03:25:08;;;;;;;;;;;6.70;79.80;;;;;;4974298;28;87485;-49
2024/03/20 03:27:34;;;;;;;;;;;6.70;79.80;;;;;;4976339;28;87705;-50
2024/03/20 03:30:00;;;;;;;;;;;6.70;79.90;;;;;;4974597;28;87489;-51
2024/03/20 03:32:25;;;;;;;;;;;6.70;79.80;;;;;;4975472;28;87041;-49
2024/03/20 03:34:51;;;;;;;;;;;6.70;79.80;;;;;;4976731;28;86763;-50
2024/03/20 03:37:17;;;;;;;;;;;6.70;79.70;;;;;;4978032;28;88699;-50
2024/03/20 03:39:43;;;;;;;;;;;6.70;79.70;;;;;;4975275;28;87285;-49
2024/03/20 03:42:08;;;;;;;;;;;6.70;79.70;;;;;;4974552;28;88363;-50
2024/03/20 03:44:34;;;;;;;;;;;6.70;79.70;;;;;;4979122;28;86994;-49
2024/03/20 03:46:59;;;;;;;;;;;6.60;79.80;;;;;;4974236;28;87064;-50
2024/03/20 03:49:25;;;;;;;;;;;6.60;79.80;;;;;;4976299;28;88011;-52
2024/03/20 03:51:50;;;;;;;;;;;6.60;79.90;;;;;;4973882;28;87798;-51
2024/03/20 03:54:16;;;;;;;;;;;6.60;79.70;;;;;;4978628;28;87411;-49
2024/03/20 03:56:41;;;;;;;;;;;6.60;79.50;;;;;;4971114;28;88152;-50
2024/03/20 03:59:07;;;;;;;;;;;6.50;79.60;;;;;;4979059;28;86328;-50
2024/03/20 04:01:33;;;;;;;;;;;6.50;79.80;;;;;;4976733;28;87636;-48
2024/03/20 04:03:58;;;;;;;;;;;6.50;79.70;;;;;;4980317;28;86981;-49
2024/03/20 04:06:24;;;;;;;;;;;6.50;79.60;;;;;;4975647;28;87905;-51
2024/03/20 04:08:49;;;;;;;;;;;6.50;79.60;;;;;;4980531;28;87450;-49
2024/03/20 04:11:15;;;;;;;;;;;6.50;79.50;;;;;;4978456;28;87010;-50
2024/03/20 04:13:40;;;;;;;;;;;6.50;79.60;;;;;;4974485;28;87124;-50
2024/03/20 04:16:06;;;;;;;;;;;6.50;79.50;;;;;;4974104;28;87967;-50
2024/03/20 04:18:31;;;;;;;;;;;6.50;79.60;;;;;;4981996;28;87046;-49
2024/03/20 04:20:57;;;;;;;;;;;6.40;79.60;;;;;;4977551;28;87952;-50
2024/03/20 04:23:23;;;;;;;;;;;6.50;79.60;;;;;;4974929;28;86935;-50
2024/03/20 04:25:48;;;;;;;;;;;6.40;79.50;;;;;;4975406;28;87716;-50
2024/03/20 04:28:14;;;;;;;;;;;6.40;79.60;;;;;;4975554;28;87029;-51
2024/03/20 04:30:40;;;;;;;;;;;6.40;79.60;;;;;;4974754;28;87978;-50
2024/03/20 04:33:06;;;;;;;;;;;6.40;79.60;;;;;;4973397;28;89109;-49
2024/03/20 04:35:32;;;;;;;;;;;6.40;79.60;;;;;;4976951;28;88586;-50
2024/03/20 04:37:58;;;;;;;;;;;6.40;79.60;;;;;;4976278;28;87171;-51
2024/03/20 04:40:23;;;;;;;;;;;6.30;79.70;;;;;;4981396;28;87447;-49
2024/03/20 04:42:49;;;;;;;;;;;6.30;79.70;;;;;;4979061;28;86772;-49
2024/03/20 04:45:15;;;;;;;;;;;6.30;79.60;;;;;;4975638;28;86873;-49
2024/03/20 04:47:40;;;;;;;;;;;6.30;79.60;;;;;;4974950;28;86706;-50
2024/03/20 04:50:09;;;;;;;;;;;6.30;79.60;;;;;;4974464;28;87391;-50
2024/03/20 04:52:34;;;;;;;;;;;6.30;79.60;;;;;;4976665;28;87075;-48
2024/03/20 04:55:00;;;;;;;;;;;6.30;79.50;;;;;;4972599;28;88270;-50
2024/03/20 04:57:26;;;;;;;;;;;6.30;79.60;;;;;;4978989;28;87053;-49
2024/03/20 04:59:51;;;;;;;;;;;6.30;79.60;;;;;;4974749;28;87037;-50
2024/03/20 05:02:17;;;;;;;;;;;6.30;79.60;;;;;;4977086;28;87183;-49
2024/03/20 05:04:42;;;;;;;;;;;6.30;79.60;;;;;;4970091;28;87167;-48
2024/03/20 05:07:08;;;;;;;;;;;6.30;79.60;;;;;;4977670;28;87476;-50
2024/03/20 05:09:33;;;;;;;;;;;6.20;79.60;;;;;;4977172;28;87960;-48
2024/03/20 05:11:59;;;;;;;;;;;6.20;79.50;;;;;;4976297;28;86718;-50
2024/03/20 05:14:24;;;;;;;;;;;6.20;79.60;;;;;;4980031;28;86903;-49
2024/03/20 05:16:51;;;;;;;;;;;6.20;79.80;;;;;;4975536;28;87133;-51
2024/03/20 05:19:17;;;;;;;;;;;6.10;79.80;;;;;;4976641;28;88601;-50
2024/03/20 05:21:43;;;;;;;;;;;6.20;79.60;;;;;;4976249;28;87733;-50
2024/03/20 05:24:08;;;;;;;;;;;6.20;79.50;;;;;;4978031;28;87039;-49
2024/03/20 05:26:34;;;;;;;;;;;6.20;79.60;;;;;;4976271;28;87469;-48
2024/03/20 05:28:59;;;;;;;;;;;6.20;79.70;;;;;;4973720;28;87023;-50
2024/03/20 05:31:27;;;;;;;;;;;6.20;79.50;;;;;;4970472;28;87113;-51
2024/03/20 05:33:53;;;;;;;;;;;6.10;79.60;;;;;;4973966;28;87243;-51
2024/03/20 05:36:18;;;;;;;;;;;6.10;79.60;;;;;;4977343;28;86250;-50
2024/03/20 05:38:44;;;;;;;;;;;6.10;79.50;;;;;;4978481;28;86988;-50
2024/03/20 05:41:09;;;;;;;;;;;6.10;79.50;;;;;;4976918;28;87460;-49
2024/03/20 05:43:35;;;;;;;;;;;6.10;79.60;;;;;;4976167;28;87905;-50
2024/03/20 05:46:01;;;;;;;;;;;6.10;79.60;;;;;;4977387;28;87616;-50
2024/03/20 05:48:26;;;;;;;;;;;6.10;79.50;;;;;;4976131;28;87068;-49
2024/03/20 05:50:52;;;;;;;;;;;6.10;79.60;;;;;;4974454;28;86969;-50
2024/03/20 05:53:18;;;;;;;;;;;6.10;79.60;;;;;;4976743;28;86946;-49
2024/03/20 05:55:44;;;;;;;;;;;6.10;79.50;;;;;;4975686;28;87628;-49
2024/03/20 05:58:10;;;;;;;;;;;6.10;79.50;;;;;;4973416;28;86891;-50
2024/03/20 06:00:35;;;;;;;;;;;6.00;79.40;;;;;;4968466;28;87811;-48
2024/03/20 06:03:01;;;;;;;;;;;6.10;79.50;;;;;;4976891;28;87086;-52
2024/03/20 06:05:27;;;;;;;;;;;6.10;79.40;;;;;;4976195;28;87448;-50
2024/03/20 06:07:55;;;;;;;;;;;6.00;79.50;;;;;;4976195;28;88466;-49
2024/03/20 06:10:21;;;;;;;;;;;6.00;79.60;;;;;;4974695;28;87757;-50
2024/03/20 06:12:47;;;;;;;;;;;6.00;79.60;;;;;;4971408;28;87460;-49
2024/03/20 06:15:13;;;;;;;;;;;6.00;79.50;;;;;;4970600;28;86977;-51
2024/03/20 06:17:38;;;;;;;;;;;6.00;79.60;;;;;;4978170;28;87211;-50
2024/03/20 06:20:05;;;;;;;;;;;6.00;79.60;;;;;;4976276;28;88413;-49
2024/03/20 06:22:32;;;;;;;;;;;5.90;79.70;;;;;;4969898;28;87702;-48
2024/03/20 06:24:58;;;;;;;;;;;6.00;79.70;;;;;;4973818;28;87233;-51
2024/03/20 06:27:24;;;;;;;;;;;6.00;79.70;;;;;;4982486;28;87666;-49
2024/03/20 06:29:51;;;;;;;;;;;5.90;79.80;;;;;;4973400;28;87566;-49
2024/03/20 06:32:17;;;;;;;;;;;6.00;79.80;;;;;;4972038;28;89723;-50
2024/03/20 06:34:43;;;;;;;;;;;6.00;79.80;;;;;;4968906;28;86985;-50
2024/03/20 06:37:10;;;;;;;;;;;5.90;79.90;;;;;;4972668;28;87147;-49
2024/03/20 06:39:37;;;;;;;;;;;5.90;79.80;;;;;;4971745;28;87644;-53
2024/03/20 06:42:09;;;;;;;;;;;5.90;79.80;;;;;;4971958;28;87044;-51
2024/03/20 06:44:35;;;;;;;;;;;5.90;79.90;;;;;;4968702;28;87884;-48
2024/03/20 06:47:00;;;;;;;;;;;5.90;79.80;;;;;;4976068;28;87492;-52
2024/03/20 06:49:27;;;;;;;;;;;5.90;79.80;;;;;;4981243;28;86583;-51
2024/03/20 06:51:53;;;;;;;;;;;5.90;79.90;;;;;;4974789;28;88508;-50
2024/03/20 06:54:19;;;;;;;;;;;5.90;79.80;;;;;;4974521;28;87329;-51
2024/03/20 06:56:52;;;;;;;;;;;5.90;79.90;;;;;;4974181;28;88043;-49
2024/03/20 06:59:18;;;;;;;;;;;5.90;80.00;;;;;;4973397;28;88958;-49
2024/03/20 07:01:44;;;;;;;;;;;5.90;80.10;;;;;;4973393;28;87023;-52
2024/03/20 07:04:10;;;;;;;;;;;5.90;80.00;;;;;;4973447;28;87131;-51
2024/03/20 07:06:36;;;;;;;;;;;5.90;80.00;;;;;;4975284;28;88618;-48
2024/03/20 07:09:01;;;;;;;;;;;5.90;80.00;;;;;;4970630;28;87546;-49
2024/03/20 07:11:27;;;;;;;;;;;5.90;80.10;;;;;;4975640;28;87322;-50
2024/03/20 07:13:56;;;;;;;;;;;5.90;80.10;;;;;;4973171;28;86427;-50
2024/03/20 07:16:22;;;;;;;;;;;5.90;80.20;;;;;;4975327;28;87390;-50
2024/03/20 07:19:06;;;;;;;;;;;5.90;80.80;;;;;;4975381;28;87727;-52
2024/03/20 07:21:31;;;;;;;;;;;5.90;80.10;;;;;;4976359;28;88183;-48
2024/03/20 07:23:57;;;;;;;;;;;5.90;80.20;;;;;;4973425;28;88808;-49
2024/03/20 07:26:23;;;;;;;;;;;5.90;80.30;;;;;;4977473;28;87399;-49
2024/03/20 07:28:48;;;;;;;;;;;5.80;80.40;;;;;;4971439;28;87200;-50
2024/03/20 07:31:14;;;;;;;;;;;5.80;80.70;;;;;;4975007;28;87083;-51
2024/03/20 07:33:39;;;;;;;;;;;5.80;80.40;;;;;;4972755;28;86975;-49
2024/03/20 07:36:05;;;;;;;;;;;5.80;80.40;;;;;;4970284;28;86916;-47
2024/03/20 07:38:31;;;;;;;;;;;5.80;80.60;;;;;;4976487;28;87660;-51
2024/03/20 07:40:56;;;;;;;;;;;5.80;80.50;;;;;;4969940;28;87323;-48
2024/03/20 07:43:22;;;;;;;;;;;5.80;80.60;;;;;;4973641;28;87947;-49
2024/03/20 07:45:48;;;;;;;;;;;5.80;80.50;;;;;;4970315;28;88566;-49
2024/03/20 07:48:15;;;;;;;;;;;5.80;80.50;;;;;;4973327;28;87023;-49
2024/03/20 07:50:40;;;;;;;;;;;5.80;80.60;;;;;;4979788;28;88071;-49
2024/03/20 07:53:06;;;;;;;;;;;5.80;80.60;;;;;;4974429;28;87311;-50
2024/03/20 07:55:32;;;;;;;;;;;5.80;80.60;;;;;;4981555;28;86999;-52
2024/03/20 07:57:58;;;;;;;;;;;5.80;80.70;;;;;;4976360;28;87455;-50
2024/03/20 08:00:31;;;;;;;;;;;5.80;80.80;;;;;;4975689;28;87437;-50
2024/03/20 08:02:57;;;;;;;;;;;5.80;80.60;;;;;;4979540;28;87087;-50
2024/03/20 08:05:23;;;;;;;;;;;5.80;80.60;;;;;;4975373;28;87423;-50
2024/03/20 08:07:49;;;;;;;;;;;5.80;80.60;;;;;;4973514;28;86945;-50
2024/03/20 08:10:14;;;;;;;;;;;5.80;80.50;;;;;;4973685;28;88012;-50
2024/03/20 08:12:40;;;;;;;;;;;5.80;80.60;;;;;;4971983;28;87391;-50
2024/03/20 08:15:07;;;;;;;;;;;5.90;80.60;;;;;;4976652;28;87034;-51
2024/03/20 08:17:33;;;;;;;;;;;5.90;80.60;;;;;;4976197;28;87293;-49
2024/03/20 08:19:58;;;;;;;;;;;5.80;80.70;;;;;;4975383;28;87745;-50
2024/03/20 08:22:24;;;;;;;;;;;5.80;80.80;;;;;;4978370;28;86975;-51
2024/03/20 08:24:50;;;;;;;;;;;5.80;80.90;;;;;;4978768;28;88535;-49
2024/03/20 08:27:15;;;;;;;;;;;5.80;81.10;;;;;;4976997;28;86310;-50
2024/03/20 08:29:41;;;;;;;;;;;5.80;81.10;;;;;;4977695;28;86935;-50
2024/03/20 08:32:09;;;;;;;;;;;5.80;81.00;;;;;;4974595;28;87540;-51
2024/03/20 08:34:35;;;;;;;;;;;5.80;81.00;;;;;;4973015;28;87936;-48
2024/03/20 08:37:00;;;;;;;;;;;5.80;80.90;;;;;;4977154;28;87797;-49
2024/03/20 08:39:26;;;;;;;;;;;5.80;80.90;;;;;;4975572;28;87061;-50
2024/03/20 08:41:52;;;;;;;;;;;5.90;81.10;;;;;;4978423;28;87978;-51
2024/03/20 08:44:17;;;;;;;;;;;5.90;80.90;;;;;;4974401;28;87756;-50
2024/03/20 08:46:43;;;;;;;;;;;5.80;81.00;;;;;;4977602;28;87078;-50
2024/03/20 08:49:08;;;;;;;;;;;5.80;81.10;;;;;;4974569;28;87814;-52
2024/03/20 08:51:34;;;;;;;;;;;5.90;81.20;;;;;;4979711;28;86745;-48
2024/03/20 08:54:00;;;;;;;;;;;5.90;81.20;;;;;;4976733;28;86967;-49
2024/03/20 08:56:26;;;;;;;;;;;5.90;81.20;;;;;;4975148;28;87200;-49
2024/03/20 08:58:51;;;;;;;;;;;5.80;81.30;;;;;;4983386;28;89681;-49
2024/03/20 09:01:17;;;;;;;;;;;5.80;81.30;;;;;;4973748;28;88752;-49
2024/03/20 09:03:43;;;;;;;;;;;5.80;81.40;;;;;;4974050;28;87347;-51
2024/03/20 09:06:08;;;;;;;;;;;5.90;81.20;;;;;;4977591;28;86974;-52
2024/03/20 09:08:34;;;;;;;;;;;5.80;81.20;;;;;;4974637;28;87598;-51
2024/03/20 09:11:00;;;;;;;;;;;5.90;81.30;;;;;;4977476;28;87757;-53
2024/03/20 09:13:28;;;;;;;;;;;5.90;81.20;;;;;;4978901;28;87518;-49
2024/03/20 09:15:54;;;;;;;;;;;5.90;81.30;;;;;;4981098;28;88003;-51
2024/03/20 09:18:20;;;;;;;;;;;5.90;81.40;;;;;;4970249;28;88030;-50
2024/03/20 09:20:46;;;;;;;;;;;5.80;81.50;;;;;;4979890;28;87289;-52
2024/03/20 09:23:11;;;;;;;;;;;5.90;81.50;;;;;;4976245;28;88766;-51
2024/03/20 09:25:37;;;;;;;;;;;5.90;81.30;;;;;;4970076;28;87181;-49
2024/03/20 09:28:02;;;;;;;;;;;5.90;81.30;;;;;;4975264;28;88217;-48
2024/03/20 09:30:28;;;;;;;;;;;5.90;81.30;;;;;;4975181;28;86886;-49
2024/03/20 09:32:54;;;;;;;;;;;5.90;81.30;;;;;;4973143;28;87417;-49
2024/03/20 09:35:20;;;;;;;;;;;5.90;81.30;;;;;;4977350;28;87072;-49
2024/03/20 09:37:46;;;;;;;;;;;5.90;81.30;;;;;;4974167;28;88627;-49
2024/03/20 09:40:12;;;;;;;;;;;5.90;81.40;;;;;;4976279;28;87679;-50
2024/03/20 09:42:38;;;;;;;;;;;5.90;81.30;;;;;;4978521;28;87247;-49
2024/03/20 09:45:04;;;;;;;;;;;5.90;81.30;;;;;;4974685;28;88885;-49
2024/03/20 09:47:31;;;;;;;;;;;5.90;81.30;;;;;;4972512;28;88491;-49
2024/03/20 09:49:57;;;;;;;;;;;5.90;81.40;;;;;;4977277;28;86984;-49
2024/03/20 09:52:24;;;;;;;;;;;5.90;81.40;;;;;;4974843;28;87621;-50
2024/03/20 09:54:50;;;;;;;;;;;6.00;81.40;;;;;;4972250;28;87822;-49
2024/03/20 09:57:16;;;;;;;;;;;5.90;81.40;;;;;;4976909;28;87581;-50
2024/03/20 09:59:47;;;;;;;;;;;6.00;81.40;;;;;;4976634;28;86920;-49
2024/03/20 10:02:12;;;;;;;;;;;6.00;81.30;;;;;;4973669;28;88601;-50
2024/03/20 10:04:39;;;;;;;;;;;6.00;81.30;;;;;;4981810;28;86746;-50
2024/03/20 10:07:12;;;;;;;;;;;6.00;81.30;;;;;;4974677;28;87126;-48
2024/03/20 10:09:38;;;;;;;;;;;6.00;81.40;;;;;;4975937;28;87652;-50
2024/03/20 10:12:05;;;;;;;;;;;6.00;81.40;;;;;;4978123;28;87942;-50
2024/03/20 10:14:30;;;;;;;;;;;6.00;81.40;;;;;;4972628;28;88676;-51
2024/03/20 10:17:09;;;;;;;;;;;6.00;81.40;;;;;;4974228;28;87910;-52
2024/03/20 10:19:36;;;;;;;;;;;6.00;81.50;;;;;;4975235;28;86926;-50
2024/03/20 10:22:02;;;;;;;;;;;6.00;81.50;;;;;;4973732;28;87154;-49
2024/03/20 10:24:28;;;;;;;;;;;6.00;81.90;;;;;;4976894;28;88611;-50
2024/03/20 10:26:56;;;;;;;;;;;6.00;81.50;;;;;;4976486;28;87175;-49
2024/03/20 10:29:24;;;;;;;;;;;6.00;81.30;;;;;;4972706;28;87856;-51
2024/03/20 10:31:53;;;;;;;;;;;6.10;81.40;;;;;;4972040;28;89598;-50
2024/03/20 10:34:20;;;;;;;;;;;6.10;81.30;;;;;;4972940;28;87983;-49
2024/03/20 10:36:46;;;;;;;;;;;6.10;81.30;;;;;;4986482;28;91294;-51
2024/03/20 10:39:34;;;;;;;;;;;6.10;81.40;;;;;;4978861;28;87330;-49
2024/03/20 10:41:59;;;;;;;;;;;6.10;81.30;;;;;;4974504;28;87753;-49
2024/03/20 10:44:26;;;;;;;;;;;6.10;81.20;;;;;;4972953;28;88654;-48
2024/03/20 10:46:53;;;;;;;;;;;6.10;81.30;;;;;;4976932;28;86994;-50
2024/03/20 10:49:19;;;;;;;;;;;6.20;81.20;;;;;;4970426;28;89158;-50
2024/03/20 10:51:46;;;;;;;;;;;6.10;81.20;;;;;;4975323;28;87047;-50
2024/03/20 10:54:12;;;;;;;;;;;6.20;81.20;;;;;;4978510;28;87930;-50
2024/03/20 10:56:52;;;;;;;;;;;6.20;81.20;;;;;;4971315;28;87703;-52
2024/03/20 10:59:19;;;;;;;;;;;6.20;81.30;;;;;;4969172;28;87767;-49
2024/03/20 11:02:04;;;;;;;;;;;6.20;81.30;;;;;;4976347;28;88655;-52
2024/03/20 11:04:34;;;;;;;;;;;6.20;81.20;;;;;;4973747;28;87563;-50
2024/03/20 11:07:00;;;;;;;;;;;6.20;81.20;;;;;;4974869;28;87145;-49
2024/03/20 11:09:26;;;;;;;;;;;6.20;81.20;;;;;;4978260;28;87890;-50
2024/03/20 11:11:54;;;;;;;;;;;6.20;81.30;;;;;;4975078;28;86972;-51
2024/03/20 11:14:24;;;;;;;;;;;6.20;81.30;;;;;;4972442;28;87483;-49
2024/03/20 11:16:51;;;;;;;;;;;6.30;81.40;;;;;;4978451;28;88339;-51
2024/03/20 11:19:19;;;;;;;;;;;6.30;81.40;;;;;;4975470;28;86974;-51
2024/03/20 11:21:45;;;;;;;;;;;6.20;81.20;;;;;;4974389;28;87131;-47
2024/03/20 11:24:11;;;;;;;;;;;6.30;81.30;;;;;;4972228;28;87370;-48
2024/03/20 11:26:36;;;;;;;;;;;6.30;81.30;;;;;;4975341;28;87840;-49
2024/03/20 11:29:03;;;;;;;;;;;6.30;81.30;;;;;;4979720;28;88577;-50
2024/03/20 11:31:29;;;;;;;;;;;6.30;81.20;;;;;;4980333;28;87626;-51
2024/03/20 11:33:54;;;;;;;;;;;6.40;81.40;;;;;;4979487;28;87646;-49
2024/03/20 11:36:21;;;;;;;;;;;6.40;81.20;;;;;;4977099;28;87451;-49
2024/03/20 11:38:47;;;;;;;;;;;6.40;81.30;;;;;;4976378;28;87027;-49
2024/03/20 11:41:16;;;;;;;;;;;6.40;81.10;;;;;;4976644;28;87535;-49
2024/03/20 11:43:43;;;;;;;;;;;6.40;81.30;;;;;;4972428;28;86723;-49
2024/03/20 11:46:12;;;;;;;;;;;6.50;81.20;;;;;;4973345;28;86898;-49
2024/03/20 11:48:38;;;;;;;;;;;6.50;81.20;;;;;;4978545;28;87012;-50
2024/03/20 11:51:09;;;;;;;;;;;6.50;81.20;;;;;;4972802;28;88523;-48
2024/03/20 11:53:35;;;;;;;;;;;6.50;81.20;;;;;;4977941;28;87227;-49
2024/03/20 11:56:01;;;;;;;;;;;6.50;81.20;;;;;;4975158;28;87699;-49
2024/03/20 11:58:27;;;;;;;;;;;6.50;81.20;;;;;;4977125;28;86927;-50
2024/03/20 12:00:53;;;;;;;;;;;6.60;81.10;;;;;;4996648;28;87872;-49
2024/03/20 12:03:19;;;;;;;;;;;6.60;81.10;;;;;;4974580;28;87399;-51
2024/03/20 12:05:45;;;;;;;;;;;6.60;80.90;;;;;;4973568;28;87019;-51
2024/03/20 12:08:14;;;;;;;;;;;6.50;80.90;;;;;;4972067;28;86764;-50
2024/03/20 12:10:40;;;;;;;;;;;6.60;80.50;;;;;;4977085;28;88530;-51
2024/03/20 12:13:12;;;;;;;;;;;6.60;80.40;;;;;;4976150;28;87003;-48
2024/03/20 12:15:41;;;;;;;;;;;6.70;80.20;;;;;;4977760;28;87969;-50
2024/03/20 12:18:08;;;;;;;;;;;6.70;80.50;;;;;;4971179;28;87009;-47
2024/03/20 12:20:33;;;;;;;;;;;6.70;80.10;;;;;;4977584;28;87909;-49
2024/03/20 12:22:59;;;;;;;;;;;6.70;80.30;;;;;;4976548;28;87306;-53
2024/03/20 12:25:25;;;;;;;;;;;6.70;80.30;;;;;;4974154;28;87071;-49
2024/03/20 12:27:51;;;;;;;;;;;6.70;80.40;;;;;;4976433;28;88105;-49
2024/03/20 12:30:16;;;;;;;;;;;6.70;80.60;;;;;;4974793;28;87978;-50
2024/03/20 12:32:42;;;;;;;;;;;6.70;80.40;;;;;;4976364;28;86242;-49
2024/03/20 12:35:08;;;;;;;;;;;6.80;80.20;;;;;;4982788;28;87192;-49
2024/03/20 12:37:35;;;;;;;;;;;6.80;80.10;;;;;;4974270;28;87048;-50
2024/03/20 12:40:00;;;;;;;;;;;6.80;79.90;;;;;;4973634;28;88243;-51
2024/03/20 12:42:27;;;;;;;;;;;6.90;80.10;;;;;;4974548;28;87422;-50
2024/03/20 12:44:52;;;;;;;;;;;6.90;80.20;;;;;;4973644;28;87077;-52
2024/03/20 12:47:18;;;;;;;;;;;6.90;80.20;;;;;;4979391;28;87573;-50
2024/03/20 12:49:49;;;;;;;;;;;6.90;79.90;;;;;;4973928;28;87563;-50
2024/03/20 12:52:15;;;;;;;;;;;6.90;80.20;;;;;;4977400;28;87093;-50
2024/03/20 12:54:45;;;;;;;;;;;7.00;80.00;;;;;;4975975;28;87111;-50
2024/03/20 12:57:12;;;;;;;;;;;7.00;80.00;;;;;;4976753;28;86877;-49
2024/03/20 12:59:37;;;;;;;;;;;7.00;80.10;;;;;;4974187;28;87036;-49
2024/03/20 13:02:03;;;;;;;;;;;7.00;80.10;;;;;;4976038;28;88889;-51
2024/03/20 13:04:29;;;;;;;;;;;7.00;80.30;;;;;;4969760;28;87976;-50
2024/03/20 13:06:56;;;;;;;;;;;7.00;79.80;;;;;;4973199;28;88989;-48
2024/03/20 13:09:24;;;;;;;;;;;7.00;79.70;;;;;;4972046;28;88404;-50
2024/03/20 13:11:49;;;;;;;;;;;7.10;79.70;;;;;;4974582;28;87064;-49
2024/03/20 13:14:15;;;;;;;;;;;7.10;79.60;;;;;;4976774;28;87035;-50
2024/03/20 13:16:41;;;;;;;;;;;7.10;79.50;;;;;;4976504;28;87471;-51
2024/03/20 13:19:07;;;;;;;;;;;7.20;79.60;;;;;;4976098;28;87531;-48
2024/03/20 13:21:35;;;;;;;;;;;7.10;79.50;;;;;;4978984;28;86180;-50
2024/03/20 13:24:00;;;;;;;;;;;7.20;79.60;;;;;;4975856;28;87140;-49
2024/03/20 13:26:27;;;;;;;;;;;7.20;79.80;;;;;;4980068;28;87727;-51
2024/03/20 13:28:54;;;;;;;;;;;7.20;79.60;;;;;;4969252;28;89388;-49
2024/03/20 13:31:20;;;;;;;;;;;7.20;79.50;;;;;;4974392;28;87077;-50
2024/03/20 13:33:48;;;;;;;;;;;7.30;79.50;;;;;;4974023;28;87192;-48
2024/03/20 13:36:18;;;;;;;;;;;7.30;79.60;;;;;;4977632;28;87503;-50
2024/03/20 13:38:56;;;;;;;;;;;7.30;79.70;;;;;;4974852;28;87490;-51
2024/03/20 13:43:51;;;;;;;;;;;7.30;79.40;;;;;;4977836;28;87020;-51
2024/03/20 13:46:17;;;;;;;;;;;7.40;79.50;;;;;;4973178;28;86992;-51
2024/03/20 13:48:43;;;;;;;;;;;7.40;79.50;;;;;;4981799;28;88863;-49
2024/03/20 13:51:15;;;;;;;;;;;7.40;79.60;;;;;;4977303;28;87787;-50
2024/03/20 13:53:41;;;;;;;;;;;7.40;79.40;;;;;;4970632;28;87956;-49
2024/03/20 13:56:14;;;;;;;;;;;7.50;79.60;;;;;;4974211;28;87513;-49
2024/03/20 13:58:41;;;;;;;;;;;7.40;79.50;;;;;;4968367;28;87097;-49
2024/03/20 14:01:29;;;;;;;;;;;7.40;79.60;;;;;;4975904;28;88279;-49
2024/03/20 14:03:55;;;;;;;;;;;7.50;79.60;;;;;;4975296;28;88726;-51
2024/03/20 14:06:21;;;;;;;;;;;7.50;79.60;;;;;;4975078;28;86999;-50
2024/03/20 14:08:47;;;;;;;;;;;7.50;79.50;;;;;;4973960;28;89047;-49
2024/03/20 14:11:14;;;;;;;;;;;7.60;79.20;;;;;;4977953;28;86119;-50
2024/03/20 14:13:40;;;;;;;;;;;7.60;79.20;;;;;;4974429;28;86959;-49
2024/03/20 14:16:11;;;;;;;;;;;7.60;79.40;;;;;;4971023;28;87798;-49
2024/03/20 14:18:36;;;;;;;;;;;7.70;79.20;;;;;;4972293;28;87806;-49
2024/03/20 14:21:03;;;;;;;;;;;7.70;79.30;;;;;;4972494;28;87353;-49
2024/03/20 14:23:28;;;;;;;;;;;7.70;79.30;;;;;;4973481;28;88967;-49
2024/03/20 14:25:55;;;;;;;;;;;7.70;79.60;;;;;;4979455;28;87067;-52
2024/03/20 14:28:21;;;;;;;;;;;7.70;79.50;;;;;;4972020;28;87487;-50